Mekoryuk, AK

1:26 PM AKDT on May 21, 2018 (GMT -0800)
Mekoryuk

Weather History for PAMY - February, 2014

Change the Weather History Date:

Saturday, February 1, 2014

  Actual Average Record
Temperature  
Mean Temperature 25 °F -  
Max Temperature 26 °F 14 °F 38 °F (1985)
Min Temperature 24 °F 4 °F -22 °F (1999)
Degree Days  
Heating Degree Days 40    
Moisture  
Dew Point 16 °F    
Average Humidity 67    
Maximum Humidity 69    
Minimum Humidity 59    
Precipitation  
Precipitation 0.00 in - - ()
Sea Level Pressure  
Sea Level Pressure 30.57 in    
Wind  
Wind Speed 12 mph (North)    
Max Wind Speed 16 mph    
Max Gust Speed -    
Visibility 10 miles    
Events      
Averages and records for this station are not official NWS values.
T = Trace of Precipitation, MM = Missing Value Source: NWS Daily Summary

Daily Weather History Graph

Daily Weather History Graph

Search for Another Location

Airport or City:

Astronomy

Feb. 01, 2014 Rise Set
Actual Time 10:20 AM AKST 6:18 PM AKST
Civil Twilight 9:32 AM AKST 7:06 PM AKST
Nautical Twilight 8:40 AM AKST 7:57 PM AKST
Astronomical Twilight 7:51 AM AKST 8:46 PM AKST
Moon 10:27 AM AKST (2/1) 10:06 PM AKST (2/1)
Length of Visible Light 9h 33m
Length of Day
7h 58m
Waxing Crescent, 6% of the Moon is Illuminated
Feb 1
Waxing Crescent
Feb 6
First Quarter
Feb 14
Full
Feb 22
Last Quarter
Feb 28
New

Hourly Weather History & Observations

Time (AKST) Temp. Windchill Dew Point Humidity Pressure Visibility Wind Dir Wind Speed Gust Speed Precip Events Conditions
12:16 AM 26.6 °F 16.8 °F 17.6 °F 69% 30.36 in 10.0 mi NNW 10.4 mph - N/A   Clear
12:36 AM 26.6 °F 16.8 °F 17.6 °F 69% 30.37 in 10.0 mi NNW 10.4 mph - N/A   Clear
12:56 AM 26.6 °F 16.2 °F 17.6 °F 69% 30.38 in 10.0 mi NNW 11.5 mph - N/A   Partly Cloudy
1:16 AM 26.6 °F 14.7 °F 17.6 °F 69% 30.39 in 10.0 mi NNW 15.0 mph - N/A   Scattered Clouds
1:36 AM 26.6 °F 14.7 °F 17.6 °F 69% 30.39 in 10.0 mi NNW 15.0 mph - N/A   Partly Cloudy
1:56 AM 26.6 °F 14.3 °F 15.8 °F 64% 30.40 in 10.0 mi NNW 16.1 mph - N/A   Clear
2:16 AM 26.6 °F 15.2 °F 15.8 °F 64% 30.41 in 10.0 mi NNW 13.8 mph - N/A   Clear
2:36 AM 26.6 °F 14.3 °F 15.8 °F 64% 30.41 in 10.0 mi NNW 16.1 mph - N/A   Clear
2:56 AM 26.6 °F 14.7 °F 15.8 °F 64% 30.42 in 10.0 mi NNW 15.0 mph - N/A   Clear
3:16 AM 26.6 °F 14.7 °F 15.8 °F 64% 30.42 in 10.0 mi NNW 15.0 mph - N/A   Clear
3:36 AM 26.6 °F 14.7 °F 15.8 °F 64% 30.43 in 10.0 mi North 15.0 mph - N/A   Clear
3:56 AM 26.6 °F 14.7 °F 15.8 °F 64% 30.44 in 10.0 mi North 15.0 mph - N/A   Clear
4:16 AM 24.8 °F 12.9 °F 15.8 °F 69% 30.45 in 10.0 mi North 13.8 mph - N/A   Clear
4:36 AM 24.8 °F 12.9 °F 15.8 °F 69% 30.46 in 10.0 mi North 13.8 mph - N/A   Clear
4:56 AM 24.8 °F 12.9 °F 15.8 °F 69% 30.46 in 10.0 mi NNW 13.8 mph - N/A   Clear
5:16 AM 24.8 °F 12.9 °F 15.8 °F 69% 30.47 in 10.0 mi North 13.8 mph - N/A   Clear
5:36 AM 24.8 °F 13.4 °F 15.8 °F 69% 30.48 in 10.0 mi NNW 12.7 mph - N/A   Clear
5:56 AM 24.8 °F 14.6 °F 15.8 °F 69% 30.48 in 10.0 mi North 10.4 mph - N/A   Clear
6:16 AM 24.8 °F 14.0 °F 15.8 °F 69% 30.48 in 10.0 mi North 11.5 mph - N/A   Clear
6:36 AM 24.8 °F 14.0 °F 15.8 °F 69% 30.49 in 10.0 mi North 11.5 mph - N/A   Clear
6:56 AM 24.8 °F 14.6 °F 15.8 °F 69% 30.49 in 10.0 mi North 10.4 mph - N/A   Clear
7:16 AM 24.8 °F 14.6 °F 14.0 °F 64% 30.50 in 10.0 mi North 10.4 mph - N/A   Clear
7:36 AM 24.8 °F 14.6 °F 14.0 °F 64% 30.52 in 10.0 mi North 10.4 mph - N/A   Clear
7:56 AM 24.8 °F 13.4 °F 14.0 °F 64% 30.52 in 10.0 mi North 12.7 mph - N/A   Clear
8:16 AM 24.8 °F 14.0 °F 14.0 °F 64% 30.53 in 10.0 mi North 11.5 mph - N/A   Clear
8:36 AM 24.8 °F 14.6 °F 14.0 °F 64% 30.53 in 10.0 mi NNW 10.4 mph - N/A   Clear
8:56 AM 24.8 °F 14.0 °F 15.8 °F 69% 30.54 in 10.0 mi NNW 11.5 mph - N/A   Clear
9:16 AM 24.8 °F 14.6 °F 15.8 °F 69% 30.54 in 10.0 mi NNW 10.4 mph - N/A   Clear
9:36 AM 24.8 °F 14.0 °F 15.8 °F 69% 30.55 in 10.0 mi North 11.5 mph - N/A   Clear
9:56 AM 24.8 °F 14.0 °F 15.8 °F 69% 30.56 in 10.0 mi NNW 11.5 mph - N/A   Clear
10:16 AM 24.8 °F 14.6 °F 15.8 °F 69% 30.57 in 10.0 mi NNW 10.4 mph - N/A   Clear
10:36 AM 24.8 °F 14.0 °F 15.8 °F 69% 30.57 in 10.0 mi NNW 11.5 mph - N/A   Clear
10:56 AM 24.8 °F 14.0 °F 15.8 °F 69% 30.58 in 10.0 mi NNW 11.5 mph - N/A   Clear
11:16 AM 24.8 °F 13.4 °F 15.8 °F 69% 30.58 in 10.0 mi NNW 12.7 mph - N/A   Clear
11:36 AM 24.8 °F 14.6 °F 15.8 °F 69% 30.59 in 10.0 mi North 10.4 mph - N/A   Clear
11:56 AM 24.8 °F 14.0 °F 15.8 °F 69% 30.60 in 10.0 mi North 11.5 mph - N/A   Clear
12:16 PM 24.8 °F 14.0 °F 15.8 °F 69% 30.61 in 10.0 mi North 11.5 mph - N/A   Clear
12:36 PM 26.6 °F 16.8 °F 15.8 °F 64% 30.61 in 10.0 mi North 10.4 mph - N/A   Clear
12:56 PM 26.6 °F 17.5 °F 15.8 °F 64% 30.61 in 10.0 mi North 9.2 mph - N/A   Clear
1:16 PM 26.6 °F 16.8 °F 15.8 °F 64% 30.62 in 10.0 mi North 10.4 mph - N/A   Clear
1:36 PM 26.6 °F 16.8 °F 15.8 °F 64% 30.62 in 10.0 mi North 10.4 mph - N/A   Clear
1:56 PM 26.6 °F 16.8 °F 15.8 °F 64% 30.62 in 10.0 mi North 10.4 mph - N/A   Clear
2:16 PM 26.6 °F 16.2 °F 15.8 °F 64% 30.63 in 10.0 mi North 11.5 mph - N/A   Clear
3:36 PM 26.6 °F 16.8 °F 15.8 °F 64% 30.63 in 10.0 mi North 10.4 mph - N/A   Clear
3:56 PM 26.6 °F 16.8 °F 17.6 °F 69% 30.63 in 10.0 mi North 10.4 mph - N/A   Clear
4:16 PM 26.6 °F 16.8 °F 17.6 °F 69% 30.63 in 10.0 mi North 10.4 mph - N/A   Clear
4:36 PM 26.6 °F 17.5 °F 17.6 °F 69% 30.64 in 10.0 mi North 9.2 mph - N/A   Clear
4:56 PM 26.6 °F 18.2 °F 17.6 °F 69% 30.64 in 10.0 mi North 8.1 mph - N/A   Clear
5:16 PM 26.6 °F 18.2 °F 17.6 °F 69% 30.65 in 10.0 mi North 8.1 mph - N/A   Clear
5:36 PM 26.6 °F 17.5 °F 15.8 °F 64% 30.65 in 10.0 mi NNE 9.2 mph - N/A   Clear
5:56 PM 26.6 °F 17.5 °F 14.0 °F 59% 30.66 in 10.0 mi NNE 9.2 mph - N/A   Clear
6:16 PM 24.8 °F 14.6 °F 15.8 °F 69% 30.67 in 10.0 mi North 10.4 mph - N/A   Clear
6:36 PM 24.8 °F 15.3 °F 15.8 °F 69% 30.67 in 10.0 mi North 9.2 mph - N/A   Clear
6:56 PM 24.8 °F 15.3 °F 15.8 °F 69% 30.68 in 10.0 mi North 9.2 mph - N/A   Clear
7:16 PM 24.8 °F 15.3 °F 15.8 °F 69% 30.68 in 10.0 mi North 9.2 mph - N/A   Clear
7:36 PM 24.8 °F 14.6 °F 15.8 °F 69% 30.68 in 10.0 mi North 10.4 mph - N/A   Clear
7:56 PM 24.8 °F 15.3 °F 15.8 °F 69% 30.69 in 10.0 mi North 9.2 mph - N/A   Clear
8:16 PM 24.8 °F 15.3 °F 15.8 °F 69% 30.69 in 10.0 mi North 9.2 mph - N/A   Clear
8:36 PM 24.8 °F 16.1 °F 15.8 °F 69% 30.69 in 10.0 mi North 8.1 mph - N/A   Clear
8:56 PM 24.8 °F 14.0 °F 15.8 °F 69% 30.69 in 10.0 mi NNE 11.5 mph - N/A   Clear
9:16 PM 24.8 °F 14.0 °F 15.8 °F 69% 30.69 in 10.0 mi North 11.5 mph - N/A   Clear
9:36 PM 24.8 °F 14.6 °F 15.8 °F 69% 30.69 in 10.0 mi North 10.4 mph - N/A   Clear
9:56 PM 24.8 °F 14.6 °F 15.8 °F 69% 30.69 in 10.0 mi North 10.4 mph - N/A   Clear
10:16 PM 24.8 °F 14.6 °F 15.8 °F 69% 30.69 in 10.0 mi NNE 10.4 mph - N/A   Clear
10:36 PM 24.8 °F 14.6 °F 15.8 °F 69% 30.70 in 10.0 mi NNE 10.4 mph - N/A   Clear
10:56 PM 24.8 °F 15.3 °F 15.8 °F 69% 30.70 in 10.0 mi NNE 9.2 mph - N/A   Clear
11:16 PM 24.8 °F 14.0 °F 14.0 °F 64% 30.70 in 10.0 mi NNE 11.5 mph - N/A   Clear
11:36 PM 24.8 °F 14.0 °F 15.8 °F 69% 30.69 in 10.0 mi North 11.5 mph - N/A   Clear
11:56 PM 24.8 °F 14.0 °F 15.8 °F 69% 30.69 in 10.0 mi North 11.5 mph - N/A   Clear